Wilson Grip — 9HXV4 — position and weather

sailwx.info

Track history (hours):
 
Tides and Currents Weather Stations Pressure Air Temp Water Temp Dewpoint Dewpoint Depression Visibility Wind Speed Wind Dir Waves Ship Positions

Wilson Grip

Last reported at 2018-Jun-17 21:56 UTC. Time now 2018-Jun-17 22:02 UTC.
Position N 38°31' W 008°52'.

Length 88 m; draft 3.4 m.

Type: Ship. MMSI: 249528000.

Date/timePositionNaut miles runAvg speedWind from/ knotsBaromVisibWave heightAir tempDewpointWater temp
2018-Jun-17 21:56N 38°31' W 008°52'0 0.0
2018-Jun-17 21:29N 38°31' W 008°52'0 0.0
2018-Jun-17 20:59N 38°31' W 008°52'0 0.0
2018-Jun-17 20:29N 38°31' W 008°52'0 0.0
2018-Jun-17 19:59N 38°31' W 008°52'0 0.0
2018-Jun-17 19:26N 38°31' W 008°52'0 0.0
2018-Jun-17 18:50N 38°31' W 008°52'0 0.0
2018-Jun-17 18:26N 38°31' W 008°52'0 0.0
2018-Jun-17 17:56N 38°31' W 008°52'0 0.0
2018-Jun-17 17:29N 38°31' W 008°52'0 0.0
2018-Jun-17 16:59N 38°31' W 008°52'0 0.0
2018-Jun-17 16:23N 38°31' W 008°52'0 0.0
2018-Jun-17 15:53N 38°31' W 008°52'0 0.0
2018-Jun-17 15:29N 38°31' W 008°52'0 0.0
2018-Jun-17 14:59N 38°31' W 008°52'0 0.0
2018-Jun-17 14:29N 38°31' W 008°52'0 0.0
2018-Jun-17 13:59N 38°31' W 008°52'2 4.0
2018-Jun-17 13:29N 38°30' W 008°55'510.9
2018-Jun-17 13:00N 38°26' W 008°59'510.6
2018-Jun-17 12:30N 38°24' W 009°05'510.9
2018-Jun-17 12:00N 38°21' W 009°11'510.5
2018-Jun-17 11:30N 38°21' W 009°18'510.6
2018-Jun-17 11:00N 38°21' W 009°25'510.4
2018-Jun-17 10:30N 38°22' W 009°31'510.3
2018-Jun-17 10:01N 38°24' W 009°37'510.1
2018-Jun-17 09:30N 38°26' W 009°43'510.3
2018-Jun-17 09:00N 38°28' W 009°49'510.2
2018-Jun-17 08:29N 38°31' W 009°54'510.3
2018-Jun-17 08:01N 38°34' W 009°60'6 9.2
2018-Jun-17 07:21N 38°39' W 010°04'4 9.9
2018-Jun-17 06:59N 38°43' W 010°05'510.1
2018-Jun-17 06:30N 38°48' W 010°05'510.4
2018-Jun-17 06:00N 38°53' W 010°05'510.3
2018-Jun-17 05:30N 38°58' W 010°05'510.2
2018-Jun-17 05:00N 39°03' W 010°05'5 9.9
2018-Jun-17 04:30N 39°08' W 010°05'5 9.8
2018-Jun-17 04:00N 39°13' W 010°06'326 8.1
2018-Jun-15 11:37N 43°43' W 006°03'110.6
2018-Jun-15 11:30N 43°43' W 006°01'610.5
2018-Jun-15 10:57N 43°42' W 005°53'510.4
2018-Jun-15 10:31N 43°42' W 005°47'510.4
2018-Jun-15 10:00N 43°41' W 005°40'510.5
2018-Jun-15 09:29N 43°41' W 005°32'510.3
2018-Jun-15 09:00N 43°41' W 005°25'610.0
2018-Jun-15 08:23N 43°40' W 005°17'610.3
2018-Jun-15 07:45N 43°40' W 005°08'5010.5
2018-Jun-15 03:00N 43°35' W 003°59'510.3
2018-Jun-15 02:30N 43°34' W 003°52'510.0
2018-Jun-15 02:00N 43°34' W 003°45'510.2
2018-Jun-15 01:30N 43°33' W 003°38'510.1
2018-Jun-15 01:00N 43°33' W 003°31'510.1
2018-Jun-15 00:30N 43°32' W 003°24'510.3
2018-Jun-15 00:00N 43°32' W 003°17'510.6
2018-Jun-14 23:30N 43°31' W 003°10'510.5
2018-Jun-14 23:00N 43°31' W 003°03'510.2
2018-Jun-14 22:30N 43°31' W 002°56'5 9.9
2018-Jun-14 22:00N 43°30' W 002°49'510.4
2018-Jun-14 21:30N 43°29' W 002°42'510.4
2018-Jun-14 21:00N 43°28' W 002°35'510.2
2018-Jun-14 20:30N 43°27' W 002°28'510.5
2018-Jun-14 20:00N 43°26' W 002°21'510.8
2018-Jun-14 19:30N 43°25' W 002°14'510.5
2018-Jun-14 19:00N 43°23' W 002°07'510.1
2018-Jun-14 18:30N 43°22' W 002°00'4 7.7
2018-Jun-14 17:57N 43°19' W 001°55'0 0.0
2018-Jun-14 17:29N 43°19' W 001°55'0 0.0
2018-Jun-14 16:56N 43°19' W 001°55'0 0.0
2018-Jun-14 16:29N 43°19' W 001°55'0 0.0
2018-Jun-14 15:56N 43°19' W 001°55'0 0.0
2018-Jun-14 15:26N 43°19' W 001°55'0 0.0
2018-Jun-14 14:56N 43°19' W 001°55'0 0.0
2018-Jun-14 14:26N 43°19' W 001°55'0 0.0
2018-Jun-14 13:59N 43°19' W 001°55'0 0.0
2018-Jun-14 13:26N 43°19' W 001°55'0 0.0
2018-Jun-14 12:59N 43°19' W 001°55'0 0.0
2018-Jun-14 12:26N 43°19' W 001°55'0 0.0
2018-Jun-14 11:56N 43°19' W 001°55'0 0.0
2018-Jun-14 11:26N 43°19' W 001°55'0 0.0
2018-Jun-14 10:56N 43°19' W 001°55'0 0.0
2018-Jun-14 10:29N 43°19' W 001°55'0 0.0
2018-Jun-14 09:53N 43°19' W 001°55'0 0.0
2018-Jun-14 09:31N 43°19' W 001°55'2 3.9
2018-Jun-14 09:00N 43°21' W 001°55'0 0.9
2018-Jun-14 08:29N 43°21' W 001°55'0 0.0
2018-Jun-14 07:59N 43°21' W 001°55'0 0.0
2018-Jun-14 07:29N 43°21' W 001°55'0 0.0
2018-Jun-14 06:59N 43°21' W 001°55'0 0.0
2018-Jun-14 06:29N 43°21' W 001°55'0 0.0
2018-Jun-14 05:59N 43°21' W 001°55'0 0.0
2018-Jun-14 05:29N 43°21' W 001°55'0 0.0
2018-Jun-14 04:59N 43°21' W 001°55'0 0.0
2018-Jun-14 04:26N 43°21' W 001°55'0 0.0
2018-Jun-14 03:59N 43°21' W 001°55'0 0.0
2018-Jun-14 03:29N 43°21' W 001°55'0 0.0
2018-Jun-14 02:59N 43°21' W 001°55'0 0.0
2018-Jun-14 02:29N 43°21' W 001°55'0 0.0
2018-Jun-14 01:59N 43°21' W 001°55'0 0.0
2018-Jun-14 01:29N 43°21' W 001°55'0 0.0
2018-Jun-14 01:01N 43°21' W 001°55'0 0.0
2018-Jun-14 00:30N 43°21' W 001°55'0 0.0
2018-Jun-14 00:00N 43°21' W 001°55'0 0.0
2018-Jun-13 23:30N 43°21' W 001°55'0 0.0
2018-Jun-13 23:00N 43°21' W 001°55'0 0.0
2018-Jun-13 22:30N 43°21' W 001°55'0 0.0
2018-Jun-13 22:01N 43°21' W 001°55'0 0.0
2018-Jun-13 21:30N 43°21' W 001°55'0 0.0
2018-Jun-13 21:00N 43°21' W 001°55'0 0.1
2018-Jun-13 20:30N 43°21' W 001°55'4 7.6
2018-Jun-13 20:00N 43°24' W 001°57'510.2
2018-Jun-13 19:30N 43°29' W 002°01'510.2
2018-Jun-13 19:00N 43°33' W 002°04'510.2
2018-Jun-13 18:30N 43°38' W 002°08'611.1
2018-Jun-13 17:59N 43°43' W 002°12'511.1
2018-Jun-13 17:30N 43°48' W 002°15'510.5
2018-Jun-13 17:01N 43°52' W 002°18'510.1
2018-Jun-13 16:30N 43°56' W 002°22'510.3
2018-Jun-13 16:00N 44°01' W 002°26'510.4
2018-Jun-13 15:30N 44°05' W 002°29'510.5
2018-Jun-13 15:01N 44°10' W 002°32'510.7
2018-Jun-13 14:30N 44°15' W 002°36'510.5
2018-Jun-13 14:00N 44°20' W 002°39'23910.0
2018-Jun-12 13:58N 47°52' W 005°18'5 8.8
2018-Jun-12 13:25N 47°56' W 005°22'4 8.6
2018-Jun-12 12:58N 47°60' W 005°25'9 9.0
2018-Jun-12 11:58N 48°08' W 005°30'9 9.0
2018-Jun-12 10:58N 48°16' W 005°37'11 9.5
2018-Jun-12 09:48N 48°25' W 005°45'27 9.5
2018-Jun-12 06:58N 48°52' W 005°46'1210.6
2018-Jun-12 05:53N 48°58' W 005°31'11 9.6
2018-Jun-12 04:43N 49°04' W 005°16'4 8.8
2018-Jun-12 04:15N 49°06' W 005°10'62 9.7
2018-Jun-11 21:55N 49°37' W 003°49'2011.2
2018-Jun-11 20:08N 49°47' W 003°22'110.3
2018-Jun-11 20:01N 49°48' W 003°20'5 9.9
2018-Jun-11 19:30N 49°50' W 003°14'5 9.2
2018-Jun-11 18:58N 49°53' W 003°07'4 8.8
2018-Jun-11 18:31N 49°55' W 003°02'4 8.4
2018-Jun-11 18:00N 49°57' W 002°56'4 8.2
2018-Jun-11 17:30N 49°58' W 002°50'5 8.0
2018-Jun-11 16:50N 49°60' W 002°42'20 8.9
2018-Jun-11 14:34N 50°06' W 002°12'210.3
2018-Jun-11 14:25N 50°06' W 002°10'410.8
2018-Jun-11 14:00N 50°08' W 002°03'611.6
2018-Jun-11 13:30N 50°09' W 001°55'612.3
2018-Jun-11 13:00N 50°11' W 001°45'612.7
2018-Jun-11 12:30N 50°13' W 001°36'612.9
2018-Jun-11 12:00N 50°15' W 001°26'713.0
2018-Jun-11 11:30N 50°17' W 001°17'713.0
2018-Jun-11 11:00N 50°19' W 001°07'812.5
2018-Jun-11 10:24N 50°21' W 000°55'37 9.6
2018-Jun-11 06:36N 50°32' W 000°01'3 9.0
2018-Jun-11 06:17N 50°33' E 000°03'4 8.4
2018-Jun-11 05:49N 50°34' E 000°09'5 8.5
2018-Jun-11 05:15N 50°36' E 000°17'2 8.8
2018-Jun-11 04:59N 50°36' E 000°20'4 9.4
2018-Jun-11 04:30N 50°38' E 000°27'510.0
2018-Jun-11 04:00N 50°39' E 000°35'510.7
2018-Jun-11 03:30N 50°42' E 000°42'611.0
2018-Jun-11 03:00N 50°45' E 000°49'611.1
2018-Jun-11 02:30N 50°48' E 000°56'711.2
2018-Jun-11 01:54N 50°52' E 001°04'1010.6
2018-Jun-11 00:59N 50°59' E 001°16'5 9.9
2018-Jun-11 00:27N 51°02' E 001°23'4 9.4
2018-Jun-11 00:00N 51°05' E 001°28'4 8.7
2018-Jun-10 23:30N 51°08' E 001°33'4 7.8
2018-Jun-10 23:00N 51°10' E 001°38'4 7.6
2018-Jun-10 22:30N 51°13' E 001°43'4 8.0
2018-Jun-10 22:00N 51°15' E 001°47'4 8.4
2018-Jun-10 21:30N 51°19' E 001°51'4 8.9
2018-Jun-10 21:00N 51°22' E 001°56'4 8.9
2018-Jun-10 20:30N 51°24' E 002°02'5 9.7
2018-Jun-10 20:00N 51°23' E 002°10'5 9.8
2018-Jun-10 19:30N 51°21' E 002°17'510.4
2018-Jun-10 19:00N 51°22' E 002°25'510.8
2018-Jun-10 18:30N 51°22' E 002°34'510.6
2018-Jun-10 18:00N 51°22' E 002°42'5 9.4
2018-Jun-10 17:28N 51°22' E 002°51'510.7
2018-Jun-10 17:00N 51°22' E 002°58'510.7
2018-Jun-10 16:30N 51°22' E 003°07'511.0
2018-Jun-10 16:00N 51°24' E 003°15'611.8
2018-Jun-10 15:30N 51°25' E 003°25'612.2
2018-Jun-10 15:00N 51°26' E 003°34'510.5
2018-Jun-10 14:30N 51°25' E 003°42'6 6.3
2018-Jun-10 13:29N 51°20' E 003°49'2 4.3
2018-Jun-10 13:00N 51°18' E 003°50'3 6.9
2018-Jun-10 12:30N 51°14' E 003°49'4 7.3
2018-Jun-10 12:00N 51°11' E 003°48'0 0.5
2018-Jun-10 11:29N 51°11' E 003°48'0 0.0
2018-Jun-10 10:59N 51°11' E 003°48'0 0.0
2018-Jun-10 10:29N 51°11' E 003°48'0 0.0
2018-Jun-10 09:53N 51°11' E 003°48'0 0.0
2018-Jun-10 09:29N 51°11' E 003°48'0 0.0
2018-Jun-10 08:59N 51°11' E 003°48'0 0.0
2018-Jun-10 08:29N 51°11' E 003°48'0 0.0
2018-Jun-10 07:56N 51°11' E 003°48'0 0.0
2018-Jun-10 07:29N 51°11' E 003°48'0 0.0
2018-Jun-10 06:59N 51°11' E 003°48'0 0.0
2018-Jun-10 06:29N 51°11' E 003°48'0 0.0
2018-Jun-10 05:59N 51°11' E 003°48'0 0.0
2018-Jun-10 05:29N 51°11' E 003°48'0 0.0
2018-Jun-10 04:59N 51°11' E 003°48'0 0.0
2018-Jun-10 04:29N 51°11' E 003°48'0 0.0
2018-Jun-10 03:59N 51°11' E 003°48'0 0.0
2018-Jun-10 03:29N 51°11' E 003°48'0 0.0
2018-Jun-10 02:59N 51°11' E 003°48'0 0.0
2018-Jun-10 02:29N 51°11' E 003°48'0 0.1
2018-Jun-10 01:56N 51°10' E 003°48'0 0.1
2018-Jun-10 01:29N 51°11' E 003°48'0 0.0
2018-Jun-10 00:59N 51°11' E 003°48'0 0.0
2018-Jun-10 00:29N 51°11' E 003°48'0 0.0
2018-Jun-09 23:59N 51°11' E 003°48'0 0.0
2018-Jun-09 23:29N 51°11' E 003°48'0 0.0
2018-Jun-09 22:59N 51°11' E 003°48'0 0.0
2018-Jun-09 22:29N 51°11' E 003°48'0 0.0
2018-Jun-09 21:59N 51°11' E 003°48'0 0.0
2018-Jun-09 21:29N 51°11' E 003°48'0 0.0
2018-Jun-09 20:56N 51°11' E 003°48'0 0.0
2018-Jun-09 20:29N 51°11' E 003°48'0 0.0
2018-Jun-09 19:59N 51°11' E 003°48'0 0.0
2018-Jun-09 19:29N 51°11' E 003°48'0 0.0
2018-Jun-09 18:59N 51°11' E 003°48'0 0.0
2018-Jun-09 18:29N 51°11' E 003°48'0 0.0
2018-Jun-09 17:59N 51°11' E 003°48'0 0.0
2018-Jun-09 17:29N 51°11' E 003°48'0 0.0
2018-Jun-09 16:59N 51°11' E 003°48'0 0.0
2018-Jun-09 16:29N 51°11' E 003°48'0 0.0
2018-Jun-09 15:59N 51°11' E 003°48'0 0.0
2018-Jun-09 14:59N 51°11' E 003°48'0 0.0
2018-Jun-09 14:29N 51°11' E 003°48'0 0.0
2018-Jun-09 13:59N 51°11' E 003°48'0 0.0
2018-Jun-09 13:29N 51°11' E 003°48'0 0.0
2018-Jun-09 12:59N 51°11' E 003°48'0 0.0
2018-Jun-09 12:29N 51°11' E 003°48'1 2.6
2018-Jun-09 12:00N 51°09' E 003°47'0 0.0
2018-Jun-09 11:28N 51°09' E 003°47'0 0.2
2018-Jun-09 11:01N 51°09' E 003°47'0 0.2
2018-Jun-09 10:27N 51°09' E 003°47'0 0.0
2018-Jun-09 09:57N 51°09' E 003°47'0 0.0
2018-Jun-09 09:27N 51°09' E 003°47'0 0.0
2018-Jun-09 09:00N 51°09' E 003°47'0 0.0
2018-Jun-09 08:30N 51°09' E 003°47'0 0.0
2018-Jun-09 08:00N 51°09' E 003°47'0 0.0
2018-Jun-09 07:30N 51°09' E 003°47'0 0.0
2018-Jun-09 07:00N 51°09' E 003°47'0 0.0
2018-Jun-09 06:30N 51°09' E 003°47'0 0.0
2018-Jun-09 05:57N 51°09' E 003°47'0 0.0
2018-Jun-09 05:30N 51°09' E 003°47'0 0.0
2018-Jun-09 05:00N 51°09' E 003°47'0 0.0
2018-Jun-09 04:30N 51°09' E 003°47'0 0.0
2018-Jun-09 04:00N 51°09' E 003°47'0 0.0
2018-Jun-09 03:30N 51°09' E 003°47'0 0.0
2018-Jun-09 03:00N 51°09' E 003°47'0 0.0
2018-Jun-09 02:30N 51°09' E 003°47'0 0.0
2018-Jun-09 01:57N 51°09' E 003°47'0 0.0
2018-Jun-09 01:24N 51°09' E 003°47'0 0.0
2018-Jun-09 01:00N 51°09' E 003°47'0 0.0
2018-Jun-09 00:30N 51°09' E 003°47'0 0.0
2018-Jun-09 00:00N 51°09' E 003°47'0 0.0
2018-Jun-08 23:27N 51°09' E 003°47'0 0.0
2018-Jun-08 23:00N 51°09' E 003°47'0 0.0
2018-Jun-08 22:30N 51°09' E 003°47'0 0.0
2018-Jun-08 22:00N 51°09' E 003°47'0 0.0
2018-Jun-08 21:30N 51°09' E 003°47'0 0.0
2018-Jun-08 20:54N 51°09' E 003°47'0 0.0
2018-Jun-08 20:30N 51°09' E 003°47'0 0.0
2018-Jun-08 20:00N 51°09' E 003°47'0 0.0
2018-Jun-08 19:24N 51°09' E 003°47'0 0.0
2018-Jun-08 19:00N 51°09' E 003°47'0 0.0
2018-Jun-08 18:30N 51°09' E 003°47'0 0.0
2018-Jun-08 18:00N 51°09' E 003°47'0 0.0
2018-Jun-08 17:30N 51°09' E 003°47'1 1.1
2018-Jun-08 17:00N 51°10' E 003°47'1 1.1
2018-Jun-08 16:30N 51°09' E 003°47'0 0.0
2018-Jun-08 16:00N 51°09' E 003°47'0 0.0
2018-Jun-08 15:30N 51°09' E 003°47'0 0.0
2018-Jun-08 15:00N 51°09' E 003°47'0 0.0
2018-Jun-08 14:30N 51°09' E 003°47'0 0.0
2018-Jun-08 14:00N 51°09' E 003°47'0 0.0
2018-Jun-08 13:30N 51°09' E 003°47'0 0.0
2018-Jun-08 13:00N 51°09' E 003°47'0 0.0
2018-Jun-08 12:30N 51°09' E 003°47'0 0.0
2018-Jun-08 12:00N 51°09' E 003°47'0 0.0
2018-Jun-08 11:30N 51°09' E 003°47'0 0.0
2018-Jun-08 10:57N 51°09' E 003°47'0 0.0
2018-Jun-08 10:30N 51°09' E 003°47'0 0.0
2018-Jun-08 10:00N 51°09' E 003°47'0 0.0
2018-Jun-08 09:30N 51°09' E 003°47'0 0.0
2018-Jun-08 09:00N 51°09' E 003°47'0 0.0
2018-Jun-08 08:30N 51°09' E 003°47'0 0.0
2018-Jun-08 08:00N 51°09' E 003°47'0 0.0
2018-Jun-08 07:30N 51°09' E 003°47'0 0.0
2018-Jun-08 07:00N 51°09' E 003°47'0 0.0
2018-Jun-08 06:30N 51°09' E 003°47'0 0.0
2018-Jun-08 05:57N 51°09' E 003°47'0 0.0
2018-Jun-08 05:30N 51°09' E 003°47'0 0.0
2018-Jun-08 05:00N 51°09' E 003°47'0 0.0
2018-Jun-08 04:30N 51°09' E 003°47'0 0.0
2018-Jun-08 04:00N 51°09' E 003°47'0 0.0
2018-Jun-08 03:30N 51°09' E 003°47'0 0.0
2018-Jun-08 03:00N 51°09' E 003°47'0 0.0
2018-Jun-08 02:27N 51°09' E 003°47'0 0.0
2018-Jun-08 02:00N 51°09' E 003°47'0 0.0
2018-Jun-08 01:30N 51°09' E 003°47'0 0.0
2018-Jun-08 01:00N 51°09' E 003°47'0 0.0
2018-Jun-08 00:27N 51°09' E 003°47'0 0.0
2018-Jun-08 00:00N 51°09' E 003°47'0 0.0
2018-Jun-07 23:30N 51°09' E 003°47'1 3.0
2018-Jun-07 23:01N 51°11' E 003°48'4 8.5
2018-Jun-07 22:31N 51°15' E 003°49'3 6.8
2018-Jun-07 22:01N 51°18' E 003°50'  
Track history (hours):
 
Tides and Currents Weather Stations Pressure Air Temp Water Temp Dewpoint Dewpoint Depression Visibility Wind Speed Wind Dir Waves Ship Positions

Wilson Grip

Last reported at 2018-Jun-17 21:56 UTC. Time now 2018-Jun-17 22:02 UTC.
Position N 38°31' W 008°52'.

Length 88 m; draft 3.4 m.

Type: Ship. MMSI: 249528000.

Date/timePositionNaut miles runAvg speedWind from/ knotsBaromVisibWave heightAir tempDewpointWater temp
2018-Jun-17 21:56N 38°31' W 008°52'0 0.0
2018-Jun-17 21:29N 38°31' W 008°52'0 0.0
2018-Jun-17 20:59N 38°31' W 008°52'0 0.0
2018-Jun-17 20:29N 38°31' W 008°52'0 0.0
2018-Jun-17 19:59N 38°31' W 008°52'0 0.0
2018-Jun-17 19:26N 38°31' W 008°52'0 0.0
2018-Jun-17 18:50N 38°31' W 008°52'0 0.0
2018-Jun-17 18:26N 38°31' W 008°52'0 0.0
2018-Jun-17 17:56N 38°31' W 008°52'0 0.0
2018-Jun-17 17:29N 38°31' W 008°52'0 0.0
2018-Jun-17 16:59N 38°31' W 008°52'0 0.0
2018-Jun-17 16:23N 38°31' W 008°52'0 0.0
2018-Jun-17 15:53N 38°31' W 008°52'0 0.0
2018-Jun-17 15:29N 38°31' W 008°52'0 0.0
2018-Jun-17 14:59N 38°31' W 008°52'0 0.0
2018-Jun-17 14:29N 38°31' W 008°52'0 0.0
2018-Jun-17 13:59N 38°31' W 008°52'2 4.0
2018-Jun-17 13:29N 38°30' W 008°55'510.9
2018-Jun-17 13:00N 38°26' W 008°59'510.6
2018-Jun-17 12:30N 38°24' W 009°05'510.9
2018-Jun-17 12:00N 38°21' W 009°11'510.5
2018-Jun-17 11:30N 38°21' W 009°18'510.6
2018-Jun-17 11:00N 38°21' W 009°25'510.4
2018-Jun-17 10:30N 38°22' W 009°31'510.3
2018-Jun-17 10:01N 38°24' W 009°37'510.1
2018-Jun-17 09:30N 38°26' W 009°43'510.3
2018-Jun-17 09:00N 38°28' W 009°49'510.2
2018-Jun-17 08:29N 38°31' W 009°54'510.3
2018-Jun-17 08:01N 38°34' W 009°60'6 9.2
2018-Jun-17 07:21N 38°39' W 010°04'4 9.9
2018-Jun-17 06:59N 38°43' W 010°05'510.1
2018-Jun-17 06:30N 38°48' W 010°05'510.4
2018-Jun-17 06:00N 38°53' W 010°05'510.3
2018-Jun-17 05:30N 38°58' W 010°05'510.2
2018-Jun-17 05:00N 39°03' W 010°05'5 9.9
2018-Jun-17 04:30N 39°08' W 010°05'5 9.8
2018-Jun-17 04:00N 39°13' W 010°06'326 8.1
2018-Jun-15 11:37N 43°43' W 006°03'110.6
2018-Jun-15 11:30N 43°43' W 006°01'610.5
2018-Jun-15 10:57N 43°42' W 005°53'510.4
2018-Jun-15 10:31N 43°42' W 005°47'510.4
2018-Jun-15 10:00N 43°41' W 005°40'510.5
2018-Jun-15 09:29N 43°41' W 005°32'510.3
2018-Jun-15 09:00N 43°41' W 005°25'610.0
2018-Jun-15 08:23N 43°40' W 005°17'610.3
2018-Jun-15 07:45N 43°40' W 005°08'5010.5
2018-Jun-15 03:00N 43°35' W 003°59'510.3
2018-Jun-15 02:30N 43°34' W 003°52'510.0
2018-Jun-15 02:00N 43°34' W 003°45'510.2
2018-Jun-15 01:30N 43°33' W 003°38'510.1
2018-Jun-15 01:00N 43°33' W 003°31'510.1
2018-Jun-15 00:30N 43°32' W 003°24'510.3
2018-Jun-15 00:00N 43°32' W 003°17'510.6
2018-Jun-14 23:30N 43°31' W 003°10'510.5
2018-Jun-14 23:00N 43°31' W 003°03'510.2
2018-Jun-14 22:30N 43°31' W 002°56'5 9.9
2018-Jun-14 22:00N 43°30' W 002°49'510.4
2018-Jun-14 21:30N 43°29' W 002°42'510.4
2018-Jun-14 21:00N 43°28' W 002°35'510.2
2018-Jun-14 20:30N 43°27' W 002°28'510.5
2018-Jun-14 20:00N 43°26' W 002°21'510.8
2018-Jun-14 19:30N 43°25' W 002°14'510.5
2018-Jun-14 19:00N 43°23' W 002°07'510.1
2018-Jun-14 18:30N 43°22' W 002°00'4 7.7
2018-Jun-14 17:57N 43°19' W 001°55'0 0.0
2018-Jun-14 17:29N 43°19' W 001°55'0 0.0
2018-Jun-14 16:56N 43°19' W 001°55'0 0.0
2018-Jun-14 16:29N 43°19' W 001°55'0 0.0
2018-Jun-14 15:56N 43°19' W 001°55'0 0.0
2018-Jun-14 15:26N 43°19' W 001°55'0 0.0
2018-Jun-14 14:56N 43°19' W 001°55'0 0.0
2018-Jun-14 14:26N 43°19' W 001°55'0 0.0
2018-Jun-14 13:59N 43°19' W 001°55'0 0.0
2018-Jun-14 13:26N 43°19' W 001°55'0 0.0
2018-Jun-14 12:59N 43°19' W 001°55'0 0.0
2018-Jun-14 12:26N 43°19' W 001°55'0 0.0
2018-Jun-14 11:56N 43°19' W 001°55'0 0.0
2018-Jun-14 11:26N 43°19' W 001°55'0 0.0
2018-Jun-14 10:56N 43°19' W 001°55'0 0.0
2018-Jun-14 10:29N 43°19' W 001°55'0 0.0
2018-Jun-14 09:53N 43°19' W 001°55'0 0.0
2018-Jun-14 09:31N 43°19' W 001°55'2 3.9
2018-Jun-14 09:00N 43°21' W 001°55'0 0.9
2018-Jun-14 08:29N 43°21' W 001°55'0 0.0
2018-Jun-14 07:59N 43°21' W 001°55'0 0.0
2018-Jun-14 07:29N 43°21' W 001°55'0 0.0
2018-Jun-14 06:59N 43°21' W 001°55'0 0.0
2018-Jun-14 06:29N 43°21' W 001°55'0 0.0
2018-Jun-14 05:59N 43°21' W 001°55'0 0.0
2018-Jun-14 05:29N 43°21' W 001°55'0 0.0
2018-Jun-14 04:59N 43°21' W 001°55'0 0.0
2018-Jun-14 04:26N 43°21' W 001°55'0 0.0
2018-Jun-14 03:59N 43°21' W 001°55'0 0.0
2018-Jun-14 03:29N 43°21' W 001°55'0 0.0
2018-Jun-14 02:59N 43°21' W 001°55'0 0.0
2018-Jun-14 02:29N 43°21' W 001°55'0 0.0
2018-Jun-14 01:59N 43°21' W 001°55'0 0.0
2018-Jun-14 01:29N 43°21' W 001°55'0 0.0
2018-Jun-14 01:01N 43°21' W 001°55'0 0.0
2018-Jun-14 00:30N 43°21' W 001°55'0 0.0
2018-Jun-14 00:00N 43°21' W 001°55'0 0.0
2018-Jun-13 23:30N 43°21' W 001°55'0 0.0
2018-Jun-13 23:00N 43°21' W 001°55'0 0.0
2018-Jun-13 22:30N 43°21' W 001°55'0 0.0
2018-Jun-13 22:01N 43°21' W 001°55'0 0.0
2018-Jun-13 21:30N 43°21' W 001°55'0 0.0
2018-Jun-13 21:00N 43°21' W 001°55'0 0.1
2018-Jun-13 20:30N 43°21' W 001°55'4 7.6
2018-Jun-13 20:00N 43°24' W 001°57'510.2
2018-Jun-13 19:30N 43°29' W 002°01'510.2
2018-Jun-13 19:00N 43°33' W 002°04'510.2
2018-Jun-13 18:30N 43°38' W 002°08'611.1
2018-Jun-13 17:59N 43°43' W 002°12'511.1
2018-Jun-13 17:30N 43°48' W 002°15'510.5
2018-Jun-13 17:01N 43°52' W 002°18'510.1
2018-Jun-13 16:30N 43°56' W 002°22'510.3
2018-Jun-13 16:00N 44°01' W 002°26'510.4
2018-Jun-13 15:30N 44°05' W 002°29'510.5
2018-Jun-13 15:01N 44°10' W 002°32'510.7
2018-Jun-13 14:30N 44°15' W 002°36'510.5
2018-Jun-13 14:00N 44°20' W 002°39'23910.0
2018-Jun-12 13:58N 47°52' W 005°18'5 8.8
2018-Jun-12 13:25N 47°56' W 005°22'4 8.6
2018-Jun-12 12:58N 47°60' W 005°25'9 9.0
2018-Jun-12 11:58N 48°08' W 005°30'9 9.0
2018-Jun-12 10:58N 48°16' W 005°37'11 9.5
2018-Jun-12 09:48N 48°25' W 005°45'27 9.5
2018-Jun-12 06:58N 48°52' W 005°46'1210.6
2018-Jun-12 05:53N 48°58' W 005°31'11 9.6
2018-Jun-12 04:43N 49°04' W 005°16'4 8.8
2018-Jun-12 04:15N 49°06' W 005°10'62 9.7
2018-Jun-11 21:55N 49°37' W 003°49'2011.2
2018-Jun-11 20:08N 49°47' W 003°22'110.3
2018-Jun-11 20:01N 49°48' W 003°20'5 9.9
2018-Jun-11 19:30N 49°50' W 003°14'5 9.2
2018-Jun-11 18:58N 49°53' W 003°07'4 8.8
2018-Jun-11 18:31N 49°55' W 003°02'4 8.4
2018-Jun-11 18:00N 49°57' W 002°56'4 8.2
2018-Jun-11 17:30N 49°58' W 002°50'5 8.0
2018-Jun-11 16:50N 49°60' W 002°42'20 8.9
2018-Jun-11 14:34N 50°06' W 002°12'210.3
2018-Jun-11 14:25N 50°06' W 002°10'410.8
2018-Jun-11 14:00N 50°08' W 002°03'611.6
2018-Jun-11 13:30N 50°09' W 001°55'612.3
2018-Jun-11 13:00N 50°11' W 001°45'612.7
2018-Jun-11 12:30N 50°13' W 001°36'612.9
2018-Jun-11 12:00N 50°15' W 001°26'713.0
2018-Jun-11 11:30N 50°17' W 001°17'713.0
2018-Jun-11 11:00N 50°19' W 001°07'812.5
2018-Jun-11 10:24N 50°21' W 000°55'37 9.6
2018-Jun-11 06:36N 50°32' W 000°01'3 9.0
2018-Jun-11 06:17N 50°33' E 000°03'4 8.4
2018-Jun-11 05:49N 50°34' E 000°09'5 8.5
2018-Jun-11 05:15N 50°36' E 000°17'2 8.8
2018-Jun-11 04:59N 50°36' E 000°20'4 9.4
2018-Jun-11 04:30N 50°38' E 000°27'510.0
2018-Jun-11 04:00N 50°39' E 000°35'510.7
2018-Jun-11 03:30N 50°42' E 000°42'611.0
2018-Jun-11 03:00N 50°45' E 000°49'611.1
2018-Jun-11 02:30N 50°48' E 000°56'711.2
2018-Jun-11 01:54N 50°52' E 001°04'1010.6
2018-Jun-11 00:59N 50°59' E 001°16'5 9.9
2018-Jun-11 00:27N 51°02' E 001°23'4 9.4
2018-Jun-11 00:00N 51°05' E 001°28'4 8.7
2018-Jun-10 23:30N 51°08' E 001°33'4 7.8
2018-Jun-10 23:00N 51°10' E 001°38'4 7.6
2018-Jun-10 22:30N 51°13' E 001°43'4 8.0
2018-Jun-10 22:00N 51°15' E 001°47'4 8.4
2018-Jun-10 21:30N 51°19' E 001°51'4 8.9
2018-Jun-10 21:00N 51°22' E 001°56'4 8.9
2018-Jun-10 20:30N 51°24' E 002°02'5 9.7
2018-Jun-10 20:00N 51°23' E 002°10'5 9.8
2018-Jun-10 19:30N 51°21' E 002°17'510.4
2018-Jun-10 19:00N 51°22' E 002°25'510.8
2018-Jun-10 18:30N 51°22' E 002°34'510.6
2018-Jun-10 18:00N 51°22' E 002°42'5 9.4
2018-Jun-10 17:28N 51°22' E 002°51'510.7
2018-Jun-10 17:00N 51°22' E 002°58'510.7
2018-Jun-10 16:30N 51°22' E 003°07'511.0
2018-Jun-10 16:00N 51°24' E 003°15'611.8
2018-Jun-10 15:30N 51°25' E 003°25'612.2
2018-Jun-10 15:00N 51°26' E 003°34'510.5
2018-Jun-10 14:30N 51°25' E 003°42'6 6.3
2018-Jun-10 13:29N 51°20' E 003°49'2 4.3
2018-Jun-10 13:00N 51°18' E 003°50'3 6.9
2018-Jun-10 12:30N 51°14' E 003°49'4 7.3
2018-Jun-10 12:00N 51°11' E 003°48'0 0.5
2018-Jun-10 11:29N 51°11' E 003°48'0 0.0
2018-Jun-10 10:59N 51°11' E 003°48'0 0.0
2018-Jun-10 10:29N 51°11' E 003°48'0 0.0
2018-Jun-10 09:53N 51°11' E 003°48'0 0.0
2018-Jun-10 09:29N 51°11' E 003°48'0 0.0
2018-Jun-10 08:59N 51°11' E 003°48'0 0.0
2018-Jun-10 08:29N 51°11' E 003°48'0 0.0
2018-Jun-10 07:56N 51°11' E 003°48'0 0.0
2018-Jun-10 07:29N 51°11' E 003°48'0 0.0
2018-Jun-10 06:59N 51°11' E 003°48'0 0.0
2018-Jun-10 06:29N 51°11' E 003°48'0 0.0
2018-Jun-10 05:59N 51°11' E 003°48'0 0.0
2018-Jun-10 05:29N 51°11' E 003°48'0 0.0
2018-Jun-10 04:59N 51°11' E 003°48'0 0.0
2018-Jun-10 04:29N 51°11' E 003°48'0 0.0
2018-Jun-10 03:59N 51°11' E 003°48'0 0.0
2018-Jun-10 03:29N 51°11' E 003°48'0 0.0
2018-Jun-10 02:59N 51°11' E 003°48'0 0.0
2018-Jun-10 02:29N 51°11' E 003°48'0 0.1
2018-Jun-10 01:56N 51°10' E 003°48'0 0.1
2018-Jun-10 01:29N 51°11' E 003°48'0 0.0
2018-Jun-10 00:59N 51°11' E 003°48'0 0.0
2018-Jun-10 00:29N 51°11' E 003°48'0 0.0
2018-Jun-09 23:59N 51°11' E 003°48'0 0.0
2018-Jun-09 23:29N 51°11' E 003°48'0 0.0
2018-Jun-09 22:59N 51°11' E 003°48'0 0.0
2018-Jun-09 22:29N 51°11' E 003°48'0 0.0
2018-Jun-09 21:59N 51°11' E 003°48'0 0.0
2018-Jun-09 21:29N 51°11' E 003°48'0 0.0
2018-Jun-09 20:56N 51°11' E 003°48'0 0.0
2018-Jun-09 20:29N 51°11' E 003°48'0 0.0
2018-Jun-09 19:59N 51°11' E 003°48'0 0.0
2018-Jun-09 19:29N 51°11' E 003°48'0 0.0
2018-Jun-09 18:59N 51°11' E 003°48'0 0.0
2018-Jun-09 18:29N 51°11' E 003°48'0 0.0
2018-Jun-09 17:59N 51°11' E 003°48'0 0.0
2018-Jun-09 17:29N 51°11' E 003°48'0 0.0
2018-Jun-09 16:59N 51°11' E 003°48'0 0.0
2018-Jun-09 16:29N 51°11' E 003°48'0 0.0
2018-Jun-09 15:59N 51°11' E 003°48'0 0.0
2018-Jun-09 14:59N 51°11' E 003°48'0 0.0
2018-Jun-09 14:29N 51°11' E 003°48'0 0.0
2018-Jun-09 13:59N 51°11' E 003°48'0 0.0
2018-Jun-09 13:29N 51°11' E 003°48'0 0.0
2018-Jun-09 12:59N 51°11' E 003°48'0 0.0
2018-Jun-09 12:29N 51°11' E 003°48'1 2.6
2018-Jun-09 12:00N 51°09' E 003°47'0 0.0
2018-Jun-09 11:28N 51°09' E 003°47'0 0.2
2018-Jun-09 11:01N 51°09' E 003°47'0 0.2
2018-Jun-09 10:27N 51°09' E 003°47'0 0.0
2018-Jun-09 09:57N 51°09' E 003°47'0 0.0
2018-Jun-09 09:27N 51°09' E 003°47'0 0.0
2018-Jun-09 09:00N 51°09' E 003°47'0 0.0
2018-Jun-09 08:30N 51°09' E 003°47'0 0.0
2018-Jun-09 08:00N 51°09' E 003°47'0 0.0
2018-Jun-09 07:30N 51°09' E 003°47'0 0.0
2018-Jun-09 07:00N 51°09' E 003°47'0 0.0
2018-Jun-09 06:30N 51°09' E 003°47'0 0.0
2018-Jun-09 05:57N 51°09' E 003°47'0 0.0
2018-Jun-09 05:30N 51°09' E 003°47'0 0.0
2018-Jun-09 05:00N 51°09' E 003°47'0 0.0
2018-Jun-09 04:30N 51°09' E 003°47'0 0.0
2018-Jun-09 04:00N 51°09' E 003°47'0 0.0
2018-Jun-09 03:30N 51°09' E 003°47'0 0.0
2018-Jun-09 03:00N 51°09' E 003°47'0 0.0
2018-Jun-09 02:30N 51°09' E 003°47'0 0.0
2018-Jun-09 01:57N 51°09' E 003°47'0 0.0
2018-Jun-09 01:24N 51°09' E 003°47'0 0.0
2018-Jun-09 01:00N 51°09' E 003°47'0 0.0
2018-Jun-09 00:30N 51°09' E 003°47'0 0.0
2018-Jun-09 00:00N 51°09' E 003°47'0 0.0
2018-Jun-08 23:27N 51°09' E 003°47'0 0.0
2018-Jun-08 23:00N 51°09' E 003°47'0 0.0
2018-Jun-08 22:30N 51°09' E 003°47'0 0.0
2018-Jun-08 22:00N 51°09' E 003°47'0 0.0
2018-Jun-08 21:30N 51°09' E 003°47'0 0.0
2018-Jun-08 20:54N 51°09' E 003°47'0 0.0
2018-Jun-08 20:30N 51°09' E 003°47'0 0.0
2018-Jun-08 20:00N 51°09' E 003°47'0 0.0
2018-Jun-08 19:24N 51°09' E 003°47'0 0.0
2018-Jun-08 19:00N 51°09' E 003°47'0 0.0
2018-Jun-08 18:30N 51°09' E 003°47'0 0.0
2018-Jun-08 18:00N 51°09' E 003°47'0 0.0
2018-Jun-08 17:30N 51°09' E 003°47'1 1.1
2018-Jun-08 17:00N 51°10' E 003°47'1 1.1
2018-Jun-08 16:30N 51°09' E 003°47'0 0.0
2018-Jun-08 16:00N 51°09' E 003°47'0 0.0
2018-Jun-08 15:30N 51°09' E 003°47'0 0.0
2018-Jun-08 15:00N 51°09' E 003°47'0 0.0
2018-Jun-08 14:30N 51°09' E 003°47'0 0.0
2018-Jun-08 14:00N 51°09' E 003°47'0 0.0
2018-Jun-08 13:30N 51°09' E 003°47'0 0.0
2018-Jun-08 13:00N 51°09' E 003°47'0 0.0
2018-Jun-08 12:30N 51°09' E 003°47'0 0.0
2018-Jun-08 12:00N 51°09' E 003°47'0 0.0
2018-Jun-08 11:30N 51°09' E 003°47'0 0.0
2018-Jun-08 10:57N 51°09' E 003°47'0 0.0
2018-Jun-08 10:30N 51°09' E 003°47'0 0.0
2018-Jun-08 10:00N 51°09' E 003°47'0 0.0
2018-Jun-08 09:30N 51°09' E 003°47'0 0.0
2018-Jun-08 09:00N 51°09' E 003°47'0 0.0
2018-Jun-08 08:30N 51°09' E 003°47'0 0.0
2018-Jun-08 08:00N 51°09' E 003°47'0 0.0
2018-Jun-08 07:30N 51°09' E 003°47'0 0.0
2018-Jun-08 07:00N 51°09' E 003°47'0 0.0
2018-Jun-08 06:30N 51°09' E 003°47'0 0.0
2018-Jun-08 05:57N 51°09' E 003°47'0 0.0
2018-Jun-08 05:30N 51°09' E 003°47'0 0.0
2018-Jun-08 05:00N 51°09' E 003°47'0 0.0
2018-Jun-08 04:30N 51°09' E 003°47'0 0.0
2018-Jun-08 04:00N 51°09' E 003°47'0 0.0
2018-Jun-08 03:30N 51°09' E 003°47'0 0.0
2018-Jun-08 03:00N 51°09' E 003°47'0 0.0
2018-Jun-08 02:27N 51°09' E 003°47'0 0.0
2018-Jun-08 02:00N 51°09' E 003°47'0 0.0
2018-Jun-08 01:30N 51°09' E 003°47'0 0.0
2018-Jun-08 01:00N 51°09' E 003°47'0 0.0
2018-Jun-08 00:27N 51°09' E 003°47'0 0.0
2018-Jun-08 00:00N 51°09' E 003°47'0 0.0
2018-Jun-07 23:30N 51°09' E 003°47'1 3.0
2018-Jun-07 23:01N 51°11' E 003°48'4 8.5
2018-Jun-07 22:31N 51°15' E 003°49'3 6.8
2018-Jun-07 22:01N 51°18' E 003°50'  

Dump ship's entire track history